createdAt,value
2022-12-03T00:00:24.649Z,9.52
2022-12-03T00:01:26.531Z,7.50
2022-12-03T00:02:28.449Z,8.88
2022-12-03T00:03:30.488Z,9.02
2022-12-03T00:04:32.441Z,12.32
2022-12-03T00:05:34.302Z,14.73
2022-12-03T00:06:36.131Z,16.40
2022-12-03T00:07:37.978Z,14.16
2022-12-03T00:08:39.848Z,12.59
2022-12-03T00:09:41.669Z,13.46
2022-12-03T00:10:43.512Z,12.19
2022-12-03T00:11:45.320Z,13.97
2022-12-03T00:12:47.134Z,13.14
2022-12-03T00:13:48.967Z,11.31
2022-12-03T00:14:51.610Z,11.41
2022-12-03T00:15:53.563Z,11.98
2022-12-03T00:16:55.468Z,12.69
2022-12-03T00:17:57.282Z,12.33
2022-12-03T00:18:59.076Z,11.32
2022-12-03T00:20:00.879Z,8.87
2022-12-03T00:21:02.713Z,9.70
2022-12-03T00:22:04.524Z,8.80
2022-12-03T00:23:06.334Z,8.01
2022-12-03T00:24:08.170Z,10.33
2022-12-03T00:25:09.950Z,8.67
2022-12-03T00:26:12.205Z,9.81
2022-12-03T00:27:14.083Z,9.54
2022-12-03T00:28:15.908Z,10.31
2022-12-03T00:29:17.697Z,7.72
2022-12-03T00:30:19.510Z,7.67
2022-12-03T00:31:21.510Z,10.01
2022-12-03T00:32:23.477Z,9.21
2022-12-03T00:33:25.295Z,9.07
2022-12-03T00:34:27.118Z,7.95
2022-12-03T00:35:28.944Z,9.36
2022-12-03T00:36:30.881Z,7.75
2022-12-03T00:37:32.682Z,7.71
2022-12-03T00:38:34.462Z,8.85
2022-12-03T00:39:36.242Z,8.58
2022-12-03T00:40:38.150Z,7.51
2022-12-03T00:41:40.014Z,8.93
2022-12-03T00:42:41.840Z,7.53
2022-12-03T00:43:43.646Z,8.72
2022-12-03T00:44:45.466Z,7.36
2022-12-03T00:45:47.290Z,7.82
2022-12-03T00:46:49.418Z,7.75
2022-12-03T00:47:51.593Z,10.43
2022-12-03T00:48:53.405Z,9.35
2022-12-03T00:49:55.193Z,8.51
2022-12-03T00:50:56.996Z,7.39
2022-12-03T00:51:58.836Z,7.84
2022-12-03T00:53:00.633Z,8.73
2022-12-03T00:54:02.458Z,8.90
2022-12-03T00:55:04.268Z,7.29
2022-12-03T00:56:06.376Z,7.57
2022-12-03T00:57:08.235Z,8.34
2022-12-03T00:58:10.049Z,9.51
2022-12-03T00:59:11.815Z,11.48
2022-12-03T01:00:13.920Z,8.68
2022-12-03T01:01:15.790Z,7.75
2022-12-03T01:02:17.700Z,10.17
2022-12-03T01:03:19.693Z,9.11
2022-12-03T01:04:21.571Z,11.17
2022-12-03T01:05:23.400Z,10.66
2022-12-03T01:06:25.235Z,7.95
2022-12-03T01:07:27.131Z,9.30
2022-12-03T01:08:28.917Z,8.09
2022-12-03T01:09:30.716Z,8.57
2022-12-03T01:10:32.630Z,8.50
2022-12-03T01:11:34.438Z,9.71
2022-12-03T01:12:36.303Z,8.65
2022-12-03T01:13:38.126Z,9.06
2022-12-03T01:14:39.917Z,10.12
2022-12-03T01:15:41.801Z,12.05
2022-12-03T01:16:43.543Z,9.55
2022-12-03T01:17:45.370Z,7.52
2022-12-03T01:18:47.401Z,7.65
2022-12-03T01:19:49.185Z,9.11
2022-12-03T01:20:50.999Z,9.23
2022-12-03T01:21:52.812Z,8.73
2022-12-03T01:22:54.670Z,8.98
2022-12-03T01:23:56.483Z,11.41
2022-12-03T01:24:58.309Z,10.16
2022-12-03T01:26:00.119Z,9.63
2022-12-03T01:27:01.908Z,12.59
2022-12-03T01:28:03.744Z,11.11
2022-12-03T01:29:05.537Z,11.78
2022-12-03T01:30:07.322Z,11.00
2022-12-03T01:31:09.185Z,11.85
2022-12-03T01:32:10.970Z,10.68
2022-12-03T01:33:12.821Z,10.35
2022-12-03T01:34:14.722Z,12.15
2022-12-03T01:35:16.547Z,9.79
2022-12-03T01:36:18.359Z,12.85
2022-12-03T01:37:20.179Z,10.99
2022-12-03T01:38:22.030Z,12.01
2022-12-03T01:39:23.828Z,13.37
2022-12-03T01:40:25.724Z,13.17
2022-12-03T01:41:27.509Z,13.86
2022-12-03T01:42:29.323Z,15.19
2022-12-03T01:43:31.171Z,11.48
2022-12-03T01:44:32.989Z,18.85
2022-12-03T01:45:34.800Z,24.98
2022-12-03T01:46:36.677Z,20.36
2022-12-03T01:47:38.503Z,15.47
2022-12-03T01:48:40.335Z,15.43
2022-12-03T01:49:42.165Z,15.04
2022-12-03T01:50:44.181Z,13.67
2022-12-03T01:51:45.955Z,17.21
2022-12-03T01:52:47.763Z,13.40
2022-12-03T01:53:49.607Z,14.71
2022-12-03T01:54:51.747Z,14.76
2022-12-03T01:55:53.825Z,12.77
2022-12-03T01:56:55.628Z,14.20
2022-12-03T01:57:57.427Z,14.67
2022-12-03T01:58:59.285Z,14.11
2022-12-03T02:00:01.084Z,15.34
2022-12-03T02:01:02.860Z,12.71
2022-12-03T02:02:04.691Z,13.79
2022-12-03T02:03:06.478Z,12.57
2022-12-03T02:04:08.408Z,14.40
2022-12-03T02:05:10.379Z,13.67
2022-12-03T02:06:12.283Z,13.11
2022-12-03T02:07:14.109Z,11.88
2022-12-03T02:08:16.014Z,17.67
2022-12-03T02:09:17.867Z,14.99
2022-12-03T02:10:19.668Z,12.85
2022-12-03T02:11:21.475Z,14.65
2022-12-03T02:12:23.265Z,14.01
2022-12-03T02:13:25.169Z,15.01
2022-12-03T02:14:27.015Z,11.59
2022-12-03T02:15:28.804Z,14.96
2022-12-03T02:16:30.790Z,13.97
2022-12-03T02:17:32.635Z,15.84
2022-12-03T02:18:34.538Z,13.24
2022-12-03T02:19:36.391Z,13.86
2022-12-03T02:20:38.231Z,14.83
2022-12-03T02:21:40.031Z,16.84
2022-12-03T02:22:41.859Z,12.59
2022-12-03T02:23:43.659Z,13.01
2022-12-03T02:24:45.511Z,17.15
2022-12-03T02:25:47.329Z,14.73
2022-12-03T02:26:49.235Z,15.40
2022-12-03T02:27:51.028Z,14.73
2022-12-03T02:28:52.844Z,13.82
2022-12-03T02:29:54.710Z,13.50
2022-12-03T02:30:56.575Z,15.94
2022-12-03T02:31:58.493Z,15.62
2022-12-03T02:33:00.341Z,14.31
2022-12-03T02:34:02.161Z,16.19
2022-12-03T02:35:04.008Z,14.76
2022-12-03T02:36:06.047Z,16.49
2022-12-03T02:37:07.857Z,16.41
2022-12-03T02:38:09.662Z,14.41
2022-12-03T02:39:11.474Z,15.13
2022-12-03T02:40:13.411Z,16.03
2022-12-03T02:41:15.223Z,18.81
2022-12-03T02:42:17.033Z,17.24
2022-12-03T02:43:18.829Z,16.69
2022-12-03T02:44:20.628Z,14.47
2022-12-03T02:45:22.486Z,13.79
2022-12-03T02:46:24.340Z,12.59
2022-12-03T02:47:26.186Z,13.24
2022-12-03T02:48:27.989Z,11.80
2022-12-03T02:49:29.790Z,14.33
2022-12-03T02:50:31.651Z,12.94
2022-12-03T02:51:33.547Z,14.96
2022-12-03T02:52:35.354Z,13.09
2022-12-03T02:53:37.162Z,14.88
2022-12-03T02:54:38.978Z,14.13
2022-12-03T02:55:40.824Z,16.70
2022-12-03T02:56:42.725Z,12.95
2022-12-03T02:57:44.527Z,12.91
2022-12-03T02:58:46.331Z,15.98
2022-12-03T02:59:48.136Z,13.11
2022-12-03T03:00:50.137Z,15.07
2022-12-03T03:01:51.987Z,15.70
2022-12-03T03:02:53.807Z,15.24
2022-12-03T03:03:55.629Z,13.07
2022-12-03T03:04:57.422Z,13.51
2022-12-03T03:05:59.276Z,12.94
2022-12-03T03:07:01.167Z,14.65
2022-12-03T03:08:03.210Z,13.83
2022-12-03T03:09:05.083Z,13.65
2022-12-03T03:10:06.896Z,14.15
2022-12-03T03:11:08.765Z,15.62
2022-12-03T03:12:10.573Z,13.26
2022-12-03T03:13:12.366Z,14.81
2022-12-03T03:14:14.168Z,14.54
2022-12-03T03:15:15.968Z,12.47
2022-12-03T03:16:17.954Z,13.64
2022-12-03T03:17:19.750Z,11.56
2022-12-03T03:18:21.575Z,13.79
2022-12-03T03:19:23.366Z,11.31
2022-12-03T03:20:25.193Z,12.71
2022-12-03T03:21:27.041Z,14.39
2022-12-03T03:22:28.949Z,11.30
2022-12-03T03:23:30.769Z,12.41
2022-12-03T03:24:32.568Z,12.45
2022-12-03T03:25:34.383Z,13.24
2022-12-03T03:26:36.226Z,13.96
2022-12-03T03:27:38.030Z,14.31
2022-12-03T03:28:39.852Z,12.35
2022-12-03T03:29:41.661Z,21.97
2022-12-03T03:30:43.690Z,20.85
2022-12-03T03:31:45.700Z,16.03
2022-12-03T03:32:47.739Z,16.67
2022-12-03T03:33:49.529Z,15.64
2022-12-03T03:34:51.805Z,13.25
2022-12-03T03:35:53.843Z,18.43
2022-12-03T03:36:55.702Z,14.58
2022-12-03T03:37:57.548Z,15.11
2022-12-03T03:38:59.395Z,11.11
2022-12-03T03:40:01.196Z,11.39
2022-12-03T03:41:02.999Z,11.43
2022-12-03T03:42:04.838Z,14.66
2022-12-03T03:43:06.645Z,11.58
2022-12-03T03:44:08.442Z,13.64
2022-12-03T03:45:10.338Z,12.69
2022-12-03T03:46:12.233Z,13.38
2022-12-03T03:47:14.140Z,13.79
2022-12-03T03:48:15.937Z,10.25
2022-12-03T03:49:17.741Z,13.92
2022-12-03T03:50:19.552Z,14.33
2022-12-03T03:51:21.377Z,12.60
2022-12-03T03:52:23.253Z,17.21
2022-12-03T03:53:25.081Z,11.18
2022-12-03T03:54:27.949Z,13.72
2022-12-03T03:55:29.785Z,14.20
2022-12-03T03:56:31.717Z,12.40
2022-12-03T03:57:33.569Z,14.75
2022-12-03T03:58:35.366Z,12.59
2022-12-03T03:59:37.186Z,13.47
2022-12-03T04:00:38.997Z,12.33
2022-12-03T04:01:40.802Z,11.84
2022-12-03T04:02:42.641Z,11.77
2022-12-03T04:03:44.466Z,11.79
2022-12-03T04:04:46.261Z,12.71
2022-12-03T04:05:48.078Z,12.36
2022-12-03T04:06:49.991Z,13.11
2022-12-03T04:07:52.294Z,12.59
2022-12-03T04:08:54.304Z,13.46
2022-12-03T04:09:56.100Z,10.56
2022-12-03T04:10:57.909Z,16.80
2022-12-03T04:11:59.726Z,11.04
2022-12-03T04:13:01.575Z,10.38
2022-12-03T04:14:03.386Z,12.79
2022-12-03T04:15:05.184Z,12.51
2022-12-03T04:16:07.165Z,11.95
2022-12-03T04:17:08.898Z,13.73
2022-12-03T04:18:10.755Z,12.62
2022-12-03T04:19:12.555Z,11.90
2022-12-03T04:20:14.465Z,12.49
2022-12-03T04:21:16.258Z,12.83
2022-12-03T04:22:18.056Z,14.85
2022-12-03T04:23:19.907Z,12.53
2022-12-03T04:24:21.753Z,11.54
2022-12-03T04:25:23.575Z,13.34
2022-12-03T04:26:25.375Z,13.35
2022-12-03T04:27:27.173Z,11.03
2022-12-03T04:28:29.014Z,12.97
2022-12-03T04:29:30.832Z,11.71
2022-12-03T04:30:32.687Z,11.84
2022-12-03T04:31:34.544Z,10.73
2022-12-03T04:32:36.321Z,11.72
2022-12-03T04:33:38.192Z,12.09
2022-12-03T04:34:39.996Z,10.47
2022-12-03T04:35:41.803Z,12.61
2022-12-03T04:36:43.711Z,11.80
2022-12-03T04:37:45.513Z,11.11
2022-12-03T04:38:47.258Z,10.37
2022-12-03T04:39:49.127Z,11.47
2022-12-03T04:40:50.944Z,10.47
2022-12-03T04:41:52.746Z,9.78
2022-12-03T04:42:54.565Z,13.25
2022-12-03T04:43:56.422Z,11.07
2022-12-03T04:44:58.219Z,12.10
2022-12-03T04:46:00.097Z,12.62
2022-12-03T04:47:01.926Z,10.27
2022-12-03T04:48:03.724Z,11.98
2022-12-03T04:49:05.581Z,10.18
2022-12-03T04:50:07.493Z,13.78
2022-12-03T04:51:09.315Z,16.63
2022-12-03T04:52:11.119Z,11.22
2022-12-03T04:53:12.923Z,10.11
2022-12-03T04:54:14.782Z,9.96
2022-12-03T04:55:16.663Z,11.39
2022-12-03T04:56:18.500Z,12.08
2022-12-03T04:57:20.313Z,12.36
2022-12-03T04:58:22.100Z,10.29
2022-12-03T04:59:23.920Z,10.40
2022-12-03T05:00:25.740Z,10.61
2022-12-03T05:01:27.632Z,10.95
2022-12-03T05:02:29.517Z,14.11
2022-12-03T05:03:31.278Z,12.77
2022-12-03T05:04:33.129Z,12.25
2022-12-03T05:05:34.922Z,15.03
2022-12-03T05:06:36.709Z,13.91
2022-12-03T05:07:38.575Z,15.41
2022-12-03T05:08:40.409Z,13.03
2022-12-03T05:09:42.253Z,13.46
2022-12-03T05:10:44.527Z,14.36
2022-12-03T05:11:46.320Z,14.15
2022-12-03T05:12:48.119Z,16.41
2022-12-03T05:13:49.936Z,16.10
2022-12-03T05:14:52.228Z,14.82
2022-12-03T05:15:54.299Z,17.23
2022-12-03T05:16:56.331Z,13.69
2022-12-03T05:17:58.318Z,12.90
2022-12-03T05:19:00.082Z,11.89
2022-12-03T05:20:02.039Z,12.11
2022-12-03T05:21:03.828Z,13.67
2022-12-03T05:22:05.649Z,14.45
2022-12-03T05:23:07.446Z,14.19
2022-12-03T05:24:09.257Z,16.20
2022-12-03T05:25:11.105Z,14.79
2022-12-03T05:26:13.098Z,12.61
2022-12-03T05:27:18.778Z,14.95
2022-12-03T05:28:18.510Z,12.94
2022-12-03T05:29:20.307Z,12.51
2022-12-03T05:30:22.158Z,13.63
2022-12-03T05:31:24.007Z,12.57
2022-12-03T05:32:25.858Z,10.58
2022-12-03T05:33:27.640Z,10.64
2022-12-03T05:34:29.430Z,10.50
2022-12-03T05:35:31.282Z,12.13
2022-12-03T05:36:33.087Z,11.93
2022-12-03T05:37:35.103Z,10.56
2022-12-03T05:38:36.930Z,15.01
2022-12-03T05:39:38.748Z,13.41
2022-12-03T05:40:40.904Z,12.73
2022-12-03T05:41:42.746Z,15.43
2022-12-03T05:42:44.553Z,12.13
2022-12-03T05:43:46.401Z,13.67
2022-12-03T05:44:48.185Z,12.51
2022-12-03T05:45:50.104Z,12.09
2022-12-03T05:46:52.047Z,12.35
2022-12-03T05:47:53.853Z,11.22
2022-12-03T05:48:55.642Z,12.34
2022-12-03T05:49:57.444Z,10.31
2022-12-03T05:50:59.408Z,12.07
2022-12-03T05:52:01.241Z,13.18
2022-12-03T05:53:03.048Z,14.14
2022-12-03T05:54:04.875Z,16.19
2022-12-03T05:55:06.660Z,16.57
2022-12-03T05:56:08.532Z,16.71
2022-12-03T05:57:10.404Z,18.94
2022-12-03T05:58:12.186Z,14.64
2022-12-03T05:59:14.000Z,15.08
2022-12-03T06:00:15.801Z,17.89
2022-12-03T06:01:17.634Z,14.85
2022-12-03T06:02:19.522Z,19.97
2022-12-03T06:03:21.517Z,17.07
2022-12-03T06:04:23.479Z,27.97
2022-12-03T06:05:25.282Z,17.62
2022-12-03T06:06:27.140Z,13.47
2022-12-03T06:07:29.125Z,12.73
2022-12-03T06:08:30.869Z,12.87
2022-12-03T06:09:32.651Z,16.03
2022-12-03T06:10:34.460Z,16.05
2022-12-03T06:11:36.312Z,18.09
2022-12-03T06:12:38.388Z,18.62
2022-12-03T06:13:40.210Z,18.78
2022-12-03T06:14:42.021Z,16.90
2022-12-03T06:15:44.407Z,33.38
2022-12-03T06:16:46.513Z,37.23
2022-12-03T06:17:48.381Z,19.59
2022-12-03T06:18:50.249Z,25.19
2022-12-03T06:19:52.060Z,52.44
2022-12-03T06:20:53.937Z,44.45
2022-12-03T06:21:55.795Z,25.91
2022-12-03T06:22:57.572Z,25.14
2022-12-03T06:23:59.399Z,16.76
2022-12-03T06:25:06.575Z,11.92
2022-12-03T06:26:04.875Z,14.52
2022-12-03T06:27:06.726Z,13.35
2022-12-03T06:28:08.633Z,14.94
2022-12-03T06:29:10.416Z,15.33
2022-12-03T06:30:12.227Z,72.49
2022-12-03T06:31:14.141Z,56.04
2022-12-03T06:32:15.973Z,40.83
2022-12-03T06:33:17.766Z,59.29
2022-12-03T06:34:19.676Z,26.31
2022-12-03T06:35:21.480Z,16.04
2022-12-03T06:36:23.649Z,13.45
2022-12-03T06:37:25.545Z,16.01
2022-12-03T06:38:27.361Z,20.86
2022-12-03T06:39:29.166Z,20.84
2022-12-03T06:40:30.968Z,46.57
2022-12-03T06:41:32.778Z,31.01
2022-12-03T06:42:34.626Z,17.93
2022-12-03T06:43:36.498Z,12.07
2022-12-03T06:44:38.306Z,19.99
2022-12-03T06:45:43.290Z,34.71
2022-12-03T06:46:43.778Z,48.39
2022-12-03T06:47:45.593Z,38.13
2022-12-03T06:48:47.411Z,26.82
2022-12-03T06:49:49.207Z,25.31
2022-12-03T06:50:50.999Z,14.56
2022-12-03T06:51:52.828Z,22.35
2022-12-03T06:52:54.678Z,37.52
2022-12-03T06:53:56.574Z,19.56
2022-12-03T06:54:58.426Z,29.71
2022-12-03T06:56:00.226Z,24.41
2022-12-03T06:57:02.047Z,16.65
2022-12-03T06:58:03.920Z,19.64
2022-12-03T06:59:05.784Z,18.25
2022-12-03T07:00:07.702Z,13.05
2022-12-03T07:01:09.592Z,11.36
2022-12-03T07:02:11.484Z,18.50
2022-12-03T07:03:13.358Z,13.59
2022-12-03T07:04:15.152Z,15.01
2022-12-03T07:05:16.970Z,14.43
2022-12-03T07:06:18.839Z,14.10
2022-12-03T07:07:20.748Z,13.14
2022-12-03T07:08:22.592Z,16.35
2022-12-03T07:09:24.395Z,13.90
2022-12-03T07:10:26.502Z,24.90
2022-12-03T07:11:28.320Z,38.95
2022-12-03T07:12:30.127Z,24.44
2022-12-03T07:13:31.985Z,17.82
2022-12-03T07:14:33.816Z,15.15
2022-12-03T07:15:35.613Z,14.10
2022-12-03T07:16:37.544Z,15.59
2022-12-03T07:17:39.357Z,14.81
2022-12-03T07:18:41.193Z,15.13
2022-12-03T07:19:43.025Z,20.90
2022-12-03T07:20:44.834Z,16.81
2022-12-03T07:21:46.641Z,14.77
2022-12-03T07:22:48.432Z,18.66
2022-12-03T07:23:50.272Z,14.85
2022-12-03T07:24:52.479Z,14.95
2022-12-03T07:25:54.600Z,13.20
2022-12-03T07:26:56.405Z,11.32
2022-12-03T07:27:58.220Z,30.14
2022-12-03T07:29:00.083Z,38.81
2022-12-03T07:30:01.910Z,29.31
2022-12-03T07:31:03.791Z,25.28
2022-12-03T07:32:05.646Z,18.71
2022-12-03T07:33:07.482Z,26.13
2022-12-03T07:34:09.336Z,13.66
2022-12-03T07:35:11.147Z,28.90
2022-12-03T07:36:12.971Z,15.37
2022-12-03T07:37:18.620Z,27.91
2022-12-03T07:38:18.432Z,12.23
2022-12-03T07:39:20.279Z,12.44
2022-12-03T07:40:22.170Z,12.78
2022-12-03T07:41:23.975Z,18.95
2022-12-03T07:42:25.789Z,18.45
2022-12-03T07:43:27.601Z,21.10
2022-12-03T07:44:29.436Z,31.68
2022-12-03T07:45:31.304Z,27.35
2022-12-03T07:46:33.180Z,25.25
2022-12-03T07:47:34.938Z,28.56
2022-12-03T07:48:36.791Z,18.65
2022-12-03T07:49:38.623Z,13.53
2022-12-03T07:50:40.426Z,26.04
2022-12-03T07:51:42.241Z,21.54
2022-12-03T07:52:44.052Z,20.51
2022-12-03T07:53:45.858Z,16.99
2022-12-03T07:54:47.701Z,15.77
2022-12-03T07:55:49.541Z,22.29
2022-12-03T07:56:54.337Z,17.17
2022-12-03T07:57:55.085Z,17.08
2022-12-03T07:58:56.907Z,12.34
2022-12-03T07:59:58.744Z,13.24
2022-12-03T08:01:00.600Z,12.13
2022-12-03T08:02:02.435Z,10.24
2022-12-03T08:03:04.298Z,8.81
2022-12-03T08:04:06.122Z,8.43
2022-12-03T08:05:07.971Z,13.07
2022-12-03T08:06:10.186Z,12.97
2022-12-03T08:07:11.982Z,11.01
2022-12-03T08:08:13.881Z,9.46
2022-12-03T08:09:16.333Z,11.09
2022-12-03T08:10:18.351Z,13.16
2022-12-03T08:11:20.154Z,7.72
2022-12-03T08:12:21.958Z,16.07
2022-12-03T08:13:23.777Z,18.66
2022-12-03T08:14:25.605Z,27.64
2022-12-03T08:15:27.456Z,26.16
2022-12-03T08:16:29.398Z,17.11
2022-12-03T08:17:31.240Z,15.11
2022-12-03T08:18:33.045Z,14.47
2022-12-03T08:19:34.851Z,11.92
2022-12-03T08:20:36.700Z,10.46
2022-12-03T08:21:38.516Z,10.14
2022-12-03T08:22:40.319Z,9.71
2022-12-03T08:23:42.142Z,12.15
2022-12-03T08:24:43.952Z,14.21
2022-12-03T08:25:45.822Z,9.97
2022-12-03T08:26:47.617Z,12.55
2022-12-03T08:27:49.417Z,11.40
2022-12-03T08:28:51.235Z,10.83
2022-12-03T08:29:53.037Z,9.05
2022-12-03T08:30:54.879Z,8.46
2022-12-03T08:31:56.781Z,10.94
2022-12-03T08:32:58.653Z,10.62
2022-12-03T08:34:00.478Z,15.72
2022-12-03T08:35:02.269Z,12.76
2022-12-03T08:36:04.118Z,12.98
2022-12-03T08:37:05.929Z,9.46
2022-12-03T08:38:07.741Z,10.58
2022-12-03T08:39:09.557Z,10.94
2022-12-03T08:40:11.457Z,10.78
2022-12-03T08:41:13.284Z,19.32
2022-12-03T08:42:15.118Z,20.04
2022-12-03T08:43:16.941Z,23.71
2022-12-03T08:44:18.736Z,24.59
2022-12-03T08:45:20.540Z,15.33
2022-12-03T08:46:22.527Z,9.55
2022-12-03T08:47:24.343Z,14.19
2022-12-03T08:48:26.134Z,11.81
2022-12-03T08:49:27.933Z,11.52
2022-12-03T08:50:29.835Z,16.64
2022-12-03T08:51:31.687Z,11.44
2022-12-03T08:52:33.505Z,15.36
2022-12-03T08:53:35.288Z,20.87
2022-12-03T08:54:37.096Z,11.28
2022-12-03T08:55:38.902Z,20.09
2022-12-03T08:56:40.753Z,12.28
2022-12-03T08:57:42.527Z,15.79
2022-12-03T08:58:44.341Z,21.44
2022-12-03T08:59:46.122Z,13.05
2022-12-03T09:00:48.260Z,14.19
2022-12-03T09:01:50.152Z,19.73
2022-12-03T09:02:51.980Z,12.48
2022-12-03T09:03:53.864Z,15.14
2022-12-03T09:04:55.941Z,13.10
2022-12-03T09:05:57.917Z,11.83
2022-12-03T09:06:59.977Z,17.32
2022-12-03T09:08:01.816Z,15.26
2022-12-03T09:09:06.694Z,17.56
2022-12-03T09:10:07.390Z,14.85
2022-12-03T09:11:09.198Z,16.06
2022-12-03T09:12:11.043Z,9.98
2022-12-03T09:13:12.897Z,15.82
2022-12-03T09:14:18.521Z,15.95
2022-12-03T09:15:18.328Z,11.39
2022-12-03T09:16:20.212Z,15.59
2022-12-03T09:17:22.085Z,12.82
2022-12-03T09:18:23.920Z,15.32
2022-12-03T09:19:25.734Z,13.42
2022-12-03T09:20:27.560Z,14.91
2022-12-03T09:21:29.336Z,9.16
2022-12-03T09:22:31.181Z,11.12
2022-12-03T09:23:32.983Z,19.18
2022-12-03T09:24:34.780Z,8.83
2022-12-03T09:25:36.608Z,12.96
2022-12-03T09:26:38.409Z,16.13
2022-12-03T09:27:40.268Z,12.62
2022-12-03T09:28:42.076Z,11.78
2022-12-03T09:29:43.875Z,9.07
2022-12-03T09:30:45.690Z,14.16
2022-12-03T09:31:47.565Z,11.93
2022-12-03T09:32:49.419Z,19.69
2022-12-03T09:33:51.278Z,15.06
2022-12-03T09:34:53.367Z,13.91
2022-12-03T09:35:55.386Z,8.36
2022-12-03T09:36:57.199Z,9.74
2022-12-03T09:37:59.044Z,8.81
2022-12-03T09:39:00.853Z,13.67
2022-12-03T09:40:02.654Z,12.25
2022-12-03T09:41:04.479Z,8.63
2022-12-03T09:42:06.266Z,15.18
2022-12-03T09:43:08.115Z,15.51
2022-12-03T09:44:15.806Z,11.49
2022-12-03T09:45:13.521Z,11.91
2022-12-03T09:46:15.688Z,17.01
2022-12-03T09:47:17.559Z,16.91
2022-12-03T09:48:19.405Z,9.81
2022-12-03T09:49:21.214Z,15.77
2022-12-03T09:50:23.038Z,15.84
2022-12-03T09:51:24.852Z,20.03
2022-12-03T09:52:26.658Z,13.32
2022-12-03T09:53:29.321Z,11.08
2022-12-03T09:54:31.212Z,10.56
2022-12-03T09:55:33.113Z,9.91
2022-12-03T09:56:34.913Z,20.67
2022-12-03T09:57:36.721Z,15.16
2022-12-03T09:58:38.561Z,9.79
2022-12-03T09:59:40.362Z,15.81
2022-12-03T10:00:42.262Z,15.28
2022-12-03T10:01:44.139Z,16.32
2022-12-03T10:02:45.979Z,14.15
2022-12-03T10:03:47.818Z,19.97
2022-12-03T10:04:49.817Z,13.87
2022-12-03T10:05:51.790Z,16.57
2022-12-03T10:06:53.743Z,15.77
2022-12-03T10:07:55.579Z,17.83
2022-12-03T10:08:57.497Z,11.16
2022-12-03T10:09:59.308Z,14.68
2022-12-03T10:11:01.110Z,11.36
2022-12-03T10:12:02.920Z,13.44
2022-12-03T10:13:04.724Z,9.09
2022-12-03T10:14:06.541Z,7.48
2022-12-03T10:15:08.347Z,6.97
2022-12-03T10:16:10.268Z,8.75
2022-12-03T10:17:12.181Z,8.86
2022-12-03T10:18:14.019Z,8.07
2022-12-03T10:19:15.922Z,10.53
2022-12-03T10:20:17.789Z,7.79
2022-12-03T10:21:19.560Z,6.49
2022-12-03T10:22:21.481Z,8.17
2022-12-03T10:23:23.265Z,10.81
2022-12-03T10:24:25.131Z,10.11
2022-12-03T10:25:26.920Z,10.81
2022-12-03T10:26:29.014Z,11.51
2022-12-03T10:27:30.833Z,12.13
2022-12-03T10:28:32.659Z,13.07
2022-12-03T10:29:44.839Z,14.64
2022-12-03T10:30:47.014Z,9.88
2022-12-03T10:31:48.786Z,12.59
2022-12-03T10:32:50.588Z,11.36
2022-12-03T10:33:52.387Z,9.27
2022-12-03T10:34:54.414Z,13.11
2022-12-03T10:35:56.408Z,16.19
2022-12-03T10:36:58.358Z,14.99
2022-12-03T10:38:00.169Z,13.87
2022-12-03T10:39:01.996Z,9.62
2022-12-03T10:40:03.862Z,8.16
2022-12-03T10:41:05.663Z,15.02
2022-12-03T10:42:07.472Z,10.71
2022-12-03T10:43:09.296Z,11.47
2022-12-03T10:44:11.119Z,10.05
2022-12-03T10:45:12.942Z,7.12
2022-12-03T10:46:14.803Z,9.09
2022-12-03T10:47:16.779Z,11.87
2022-12-03T10:48:18.676Z,10.21
2022-12-03T10:49:20.475Z,13.75
2022-12-03T10:50:22.335Z,21.35
2022-12-03T10:51:24.181Z,14.55
2022-12-03T10:52:26.335Z,7.51
2022-12-03T10:53:28.087Z,7.60
2022-12-03T10:54:29.877Z,7.28
2022-12-03T10:55:31.712Z,7.81
2022-12-03T10:56:33.531Z,9.84
2022-12-03T10:57:35.316Z,8.33
2022-12-03T10:58:37.095Z,4.17
2022-12-03T10:59:38.815Z,8.26
2022-12-03T11:00:40.678Z,7.86
2022-12-03T11:01:42.576Z,10.16
2022-12-03T11:02:44.411Z,12.90
2022-12-03T11:03:47.168Z,7.80
2022-12-03T11:04:49.040Z,8.99
2022-12-03T11:05:50.909Z,7.67
2022-12-03T11:06:52.756Z,12.25
2022-12-03T11:07:54.615Z,6.67
2022-12-03T11:08:58.673Z,10.01
2022-12-03T11:10:00.100Z,9.70
2022-12-03T11:11:01.964Z,10.01
2022-12-03T11:12:03.767Z,9.21
2022-12-03T11:13:05.583Z,7.25
2022-12-03T11:14:07.401Z,16.62
2022-12-03T11:15:09.212Z,17.15
2022-12-03T11:16:11.155Z,12.26
2022-12-03T11:17:13.427Z,31.29
2022-12-03T11:18:15.247Z,26.93
2022-12-03T11:19:17.227Z,15.95
2022-12-03T11:20:22.622Z,14.51
2022-12-03T11:21:22.778Z,14.78
2022-12-03T11:22:24.606Z,19.54
2022-12-03T11:23:26.394Z,16.19
2022-12-03T11:24:28.220Z,8.07
2022-12-03T11:25:30.004Z,9.77
2022-12-03T11:26:32.371Z,8.35
2022-12-03T11:27:34.214Z,11.95
2022-12-03T11:28:36.029Z,10.29
2022-12-03T11:29:37.878Z,9.18
2022-12-03T11:30:39.875Z,6.17
2022-12-03T11:31:41.995Z,6.43
2022-12-03T11:32:43.858Z,9.02
2022-12-03T11:33:45.667Z,8.61
2022-12-03T11:34:47.483Z,18.45
2022-12-03T11:35:49.278Z,17.68
2022-12-03T11:37:01.610Z,10.28
2022-12-03T11:37:54.765Z,5.75
2022-12-03T11:38:56.570Z,7.27
2022-12-03T11:39:58.379Z,7.85
2022-12-03T11:41:00.292Z,11.94
2022-12-03T11:42:02.127Z,7.08
2022-12-03T11:43:03.933Z,10.56
2022-12-03T11:44:05.759Z,10.29
2022-12-03T11:45:07.565Z,9.82
2022-12-03T11:46:09.553Z,9.26
2022-12-03T11:47:11.420Z,11.60
2022-12-03T11:48:13.395Z,6.45
2022-12-03T11:49:15.387Z,8.51
2022-12-03T11:50:17.200Z,6.61
2022-12-03T11:51:19.003Z,7.50
2022-12-03T11:52:20.861Z,12.56
2022-12-03T11:53:22.682Z,11.13
2022-12-03T11:54:24.539Z,11.45
2022-12-03T11:55:27.478Z,8.17
2022-12-03T11:56:29.397Z,8.53
2022-12-03T11:57:31.244Z,9.32
2022-12-03T11:58:33.051Z,11.36
2022-12-03T11:59:34.842Z,7.39
2022-12-03T12:00:36.674Z,9.91
2022-12-03T12:01:39.262Z,6.89
2022-12-03T12:02:41.293Z,8.20
2022-12-03T12:03:43.187Z,8.66
2022-12-03T12:04:45.165Z,10.09
2022-12-03T12:05:46.985Z,10.46
2022-12-03T12:06:53.238Z,5.71
2022-12-03T12:07:52.489Z,11.83
2022-12-03T12:08:54.377Z,16.21
2022-12-03T12:09:56.432Z,21.24
2022-12-03T12:10:58.498Z,15.78
2022-12-03T12:12:00.295Z,17.58
2022-12-03T12:13:02.150Z,14.12
2022-12-03T12:14:03.953Z,16.08
2022-12-03T12:15:06.380Z,21.77
2022-12-03T12:16:08.298Z,9.37
2022-12-03T12:17:10.103Z,8.88
2022-12-03T12:18:11.954Z,8.16
2022-12-03T12:19:13.764Z,7.69
2022-12-03T12:20:15.554Z,8.66
2022-12-03T12:21:17.353Z,10.54
2022-12-03T12:22:19.174Z,9.33
2022-12-03T12:23:21.000Z,11.09
2022-12-03T12:24:22.894Z,10.50
2022-12-03T12:25:24.682Z,11.45
2022-12-03T12:26:44.012Z,12.75
2022-12-03T12:27:46.373Z,13.63
2022-12-03T12:28:48.260Z,16.77
2022-12-03T12:29:50.070Z,11.61
2022-12-03T12:30:51.886Z,16.06
2022-12-03T12:31:54.395Z,9.31
2022-12-03T12:32:56.248Z,10.95
2022-12-03T12:33:58.125Z,15.20
2022-12-03T12:34:59.941Z,13.60
2022-12-03T12:36:01.745Z,11.97
2022-12-03T12:37:03.581Z,12.17
2022-12-03T12:38:05.412Z,10.55
2022-12-03T12:39:07.309Z,10.86
2022-12-03T12:40:09.136Z,7.80
2022-12-03T12:41:10.931Z,10.98
2022-12-03T12:42:12.931Z,10.01
2022-12-03T12:43:20.288Z,6.94
2022-12-03T12:44:18.521Z,10.24
2022-12-03T12:45:20.468Z,11.37
2022-12-03T12:46:47.294Z,9.25
2022-12-03T12:47:25.954Z,8.46
2022-12-03T12:48:27.791Z,11.74
2022-12-03T12:49:29.673Z,6.49
2022-12-03T12:50:31.616Z,8.37
2022-12-03T12:51:33.510Z,8.04
2022-12-03T12:52:35.318Z,6.34
2022-12-03T12:53:37.126Z,8.14
2022-12-03T12:54:38.980Z,11.19
2022-12-03T12:55:40.904Z,8.04
2022-12-03T12:56:42.917Z,13.65
2022-12-03T12:57:44.738Z,9.81
2022-12-03T12:58:46.553Z,15.47
2022-12-03T12:59:49.733Z,10.99
2022-12-03T13:00:51.595Z,8.57
2022-12-03T13:01:53.552Z,8.49
2022-12-03T13:02:55.472Z,11.70
2022-12-03T13:03:57.310Z,12.24
2022-12-03T13:04:59.187Z,8.11
2022-12-03T13:06:00.983Z,7.89
2022-12-03T13:07:02.785Z,11.00
2022-12-03T13:08:10.122Z,9.65
2022-12-03T13:09:08.230Z,8.93
2022-12-03T13:10:10.185Z,9.94
2022-12-03T13:11:12.115Z,13.69
2022-12-03T13:12:13.854Z,9.89
2022-12-03T13:13:15.717Z,9.65
2022-12-03T13:14:17.662Z,11.26
2022-12-03T13:15:19.467Z,10.21
2022-12-03T13:16:21.327Z,11.65
2022-12-03T13:17:23.074Z,8.43
2022-12-03T13:18:24.874Z,11.09
2022-12-03T13:19:26.677Z,13.04
2022-12-03T13:20:28.504Z,11.83
2022-12-03T13:21:30.315Z,11.58
2022-12-03T13:22:41.163Z,13.22
2022-12-03T13:23:46.166Z,12.87